Time;durP1;ratioP1;P1;durP2;ratioP2;P2;SDS_P1;SDS_P2;PMS_P1;PMS_P2;Temp;Humidity;BMP_temperature;BMP_pressure;BME280_temperature;BME280_humidity;BME280_pressure;Samples;Min_cycle;Max_cycle;Signal;HPM_P1;HPM_P2
2022/08/28 00:00:15;;;;;;;7.38;3.00;;;22.80;73.10;;;;;;6157206;23;20005;-77
2022/08/28 00:02:41;;;;;;;8.88;2.97;;;22.80;72.90;;;;;;6183564;23;20012;-78
2022/08/28 00:05:09;;;;;;;8.18;3.30;;;22.80;72.90;;;;;;6157104;23;20009;-76
2022/08/28 00:07:35;;;;;;;9.63;3.58;;;22.80;72.90;;;;;;6183434;23;20008;-77
2022/08/28 00:10:00;;;;;;;7.95;3.38;;;22.80;72.90;;;;;;6156754;23;20005;-78
2022/08/28 00:12:26;;;;;;;7.82;3.50;;;22.80;73.10;;;;;;6156382;23;20012;-77
2022/08/28 00:14:52;;;;;;;7.03;3.00;;;22.80;73.10;;;;;;6183713;23;20011;-77
2022/08/28 00:17:17;;;;;;;8.55;3.28;;;22.80;73.20;;;;;;6155514;23;20676;-77
2022/08/28 00:19:43;;;;;;;7.57;3.35;;;22.80;73.10;;;;;;6154970;23;20001;-76
2022/08/28 00:22:08;;;;;;;7.60;3.47;;;22.80;73.00;;;;;;6181601;23;20060;-78
2022/08/28 00:24:35;;;;;;;8.88;3.13;;;22.80;72.80;;;;;;6181549;23;20423;-76
2022/08/28 00:29:45;;;;;;;9.85;3.55;;;22.80;72.80;;;;;;6181457;23;20093;-76
2022/08/28 00:32:10;;;;;;;6.80;3.35;;;22.80;72.80;;;;;;6155959;23;20024;-78
2022/08/28 00:34:36;;;;;;;7.75;3.08;;;22.70;72.60;;;;;;6157558;23;20508;-77
2022/08/28 00:37:02;;;;;;;8.35;3.40;;;22.70;72.80;;;;;;6183165;23;20080;-77
2022/08/28 00:39:27;;;;;;;8.38;3.40;;;22.70;72.60;;;;;;6157015;23;20001;-77
2022/08/28 00:41:53;;;;;;;8.77;3.63;;;22.70;72.70;;;;;;6157109;23;20079;-77
2022/08/28 00:44:22;;;;;;;7.55;3.20;;;22.70;72.60;;;;;;6156777;23;20055;-77
2022/08/28 00:46:50;;;;;;;7.35;3.25;;;22.70;72.50;;;;;;6183005;23;20005;-77
2022/08/28 00:49:21;;;;;;;8.38;3.22;;;22.70;72.40;;;;;;6183305;23;20001;-76
2022/08/28 00:52:07;;;;;;;8.15;3.70;;;22.70;72.40;;;;;;6156576;23;20469;-76
2022/08/28 00:54:41;;;;;;;9.07;3.53;;;22.70;72.40;;;;;;6183431;23;20450;-76
2022/08/28 00:57:09;;;;;;;6.88;2.80;;;22.70;72.30;;;;;;6183027;23;20001;-77
2022/08/28 00:59:36;;;;;;;8.88;3.55;;;22.70;72.60;;;;;;6156881;23;20008;-77
2022/08/28 01:02:03;;;;;;;7.72;3.28;;;22.70;72.70;;;;;;6156787;23;20017;-76
2022/08/28 01:04:31;;;;;;;7.78;3.28;;;22.80;72.80;;;;;;6156626;23;20005;-77
2022/08/28 01:06:59;;;;;;;7.35;3.15;;;22.70;72.60;;;;;;6156530;23;20009;-77
2022/08/28 01:09:28;;;;;;;8.15;3.55;;;22.70;72.40;;;;;;6157078;23;20116;-77
2022/08/28 01:11:58;;;;;;;8.38;3.72;;;22.70;72.50;;;;;;6156090;23;20008;-76
2022/08/28 01:14:25;;;;;;;8.75;3.58;;;22.70;72.30;;;;;;6156918;23;20084;-77
2022/08/28 01:16:54;;;;;;;8.85;3.33;;;22.70;72.40;;;;;;6156568;23;20553;-78
2022/08/28 01:19:29;;;;;;;8.45;3.42;;;22.70;72.30;;;;;;6156963;23;20346;-78
2022/08/28 01:21:59;;;;;;;8.15;3.70;;;22.70;72.30;;;;;;6158906;23;20084;-77
2022/08/28 01:24:25;;;;;;;10.23;3.55;;;22.60;72.30;;;;;;6158950;23;20005;-76
2022/08/28 01:26:50;;;;;;;7.50;3.33;;;22.60;72.20;;;;;;6158481;23;20013;-77
2022/08/28 01:29:17;;;;;;;7.88;3.22;;;22.60;72.30;;;;;;6158921;23;20001;-76
2022/08/28 01:31:42;;;;;;;8.88;3.13;;;22.60;72.10;;;;;;6158557;23;20075;-76
2022/08/28 01:34:11;;;;;;;9.35;3.88;;;22.60;72.10;;;;;;6185212;23;19997;-77
2022/08/28 01:36:37;;;;;;;10.02;3.75;;;22.60;72.00;;;;;;6184688;23;19997;-77
2022/08/28 01:39:08;;;;;;;8.70;3.63;;;22.60;72.10;;;;;;6158770;23;20024;-77
2022/08/28 01:41:36;;;;;;;7.50;3.38;;;22.60;72.00;;;;;;6185036;23;20013;-76
2022/08/28 01:44:02;;;;;;;7.38;3.17;;;22.60;72.10;;;;;;6184963;23;20009;-74
2022/08/28 01:46:28;;;;;;;8.00;3.40;;;22.60;72.40;;;;;;6157809;23;20019;-77
2022/08/28 01:48:53;;;;;;;7.50;3.00;;;22.70;72.30;;;;;;6156799;23;20005;-76
2022/08/28 01:51:19;;;;;;;6.80;3.30;;;22.70;72.20;;;;;;6156760;23;20009;-77
2022/08/28 01:53:45;;;;;;;8.57;3.33;;;22.70;72.10;;;;;;6157968;23;20103;-76
2022/08/28 01:56:13;;;;;;;6.85;3.03;;;22.70;72.70;;;;;;6158438;23;20027;-76
2022/08/28 01:58:40;;;;;;;7.63;3.33;;;22.60;72.00;;;;;;6158548;23;20336;-77
2022/08/28 02:01:14;;;;;;;8.25;3.47;;;22.60;71.80;;;;;;6158291;23;20016;-77
2022/08/28 02:03:41;;;;;;;7.18;3.38;;;22.60;72.00;;;;;;6158581;23;20039;-77
2022/08/28 02:06:08;;;;;;;8.95;3.38;;;22.60;72.00;;;;;;6158346;23;20001;-77
2022/08/28 02:08:35;;;;;;;8.35;3.47;;;22.60;72.10;;;;;;6158403;23;20032;-77
2022/08/28 02:11:01;;;;;;;8.43;3.30;;;22.60;71.90;;;;;;6157741;23;20060;-77
2022/08/28 02:13:27;;;;;;;7.72;3.60;;;22.50;71.80;;;;;;6158367;23;20012;-78
2022/08/28 02:15:52;;;;;;;7.70;3.55;;;22.50;71.80;;;;;;6185163;23;20068;-78
2022/08/28 02:18:19;;;;;;;9.18;3.63;;;22.50;71.80;;;;;;6158022;23;20401;-77
2022/08/28 02:20:45;;;;;;;7.30;3.13;;;22.50;71.80;;;;;;6158443;23;20015;-77
2022/08/28 02:23:11;;;;;;;7.65;3.65;;;22.50;71.70;;;;;;6158309;23;20048;-76
2022/08/28 02:25:36;;;;;;;6.85;3.42;;;22.50;71.70;;;;;;6184521;23;20005;-78
2022/08/28 02:28:02;;;;;;;8.20;3.20;;;22.50;71.80;;;;;;6158083;23;20466;-77
2022/08/28 02:30:28;;;;;;;10.15;3.50;;;22.50;71.80;;;;;;6184436;23;20485;-77
2022/08/28 02:32:53;;;;;;;7.47;2.88;;;22.60;72.10;;;;;;6184022;23;20009;-77
2022/08/28 02:35:21;;;;;;;7.63;3.38;;;22.60;72.00;;;;;;6158109;23;20001;-77
2022/08/28 02:37:48;;;;;;;6.78;3.10;;;22.60;71.80;;;;;;6184066;23;20080;-77
2022/08/28 02:40:16;;;;;;;7.63;3.42;;;22.60;71.90;;;;;;6158239;23;20019;-76
2022/08/28 02:42:43;;;;;;;8.13;3.40;;;22.60;71.80;;;;;;6158245;23;20005;-76
2022/08/28 02:45:10;;;;;;;8.93;3.20;;;22.60;71.60;;;;;;6154919;23;20438;-76
2022/08/28 02:47:38;;;;;;;9.30;3.60;;;22.50;71.60;;;;;;6157530;23;20008;-76
2022/08/28 02:50:06;;;;;;;7.07;3.22;;;22.50;71.70;;;;;;6157953;23;20374;-75
2022/08/28 02:52:33;;;;;;;8.73;3.30;;;22.50;71.70;;;;;;6184364;23;20080;-76
2022/08/28 02:54:58;;;;;;;9.27;3.63;;;22.50;71.80;;;;;;6184430;23;20029;-76
2022/08/28 02:57:25;;;;;;;7.50;3.70;;;22.50;71.60;;;;;;6157641;23;20447;-76
2022/08/28 02:59:50;;;;;;;8.65;3.60;;;22.50;71.60;;;;;;6184098;23;20070;-76
2022/08/28 03:02:16;;;;;;;10.18;3.50;;;22.50;71.60;;;;;;6159766;23;20009;-78
2022/08/28 03:04:41;;;;;;;7.75;3.08;;;22.50;71.50;;;;;;6157801;23;20523;-76
2022/08/28 03:07:08;;;;;;;8.35;3.30;;;22.40;71.50;;;;;;6184141;23;20117;-76
2022/08/28 03:09:34;;;;;;;9.25;3.80;;;22.40;71.50;;;;;;6157852;23;20044;-76
2022/08/28 03:12:01;;;;;;;9.40;3.60;;;22.40;71.40;;;;;;6157147;23;20005;-76
2022/08/28 03:14:26;;;;;;;11.80;3.33;;;22.50;71.50;;;;;;6184138;23;20075;-76
2022/08/28 03:16:52;;;;;;;8.60;3.40;;;22.50;71.60;;;;;;6157660;23;20359;-76
2022/08/28 03:19:18;;;;;;;6.97;3.10;;;22.50;71.70;;;;;;6157864;23;20320;-76
2022/08/28 03:21:43;;;;;;;8.80;3.15;;;22.50;71.80;;;;;;6157404;23;20013;-77
2022/08/28 03:24:09;;;;;;;7.00;3.00;;;22.50;71.70;;;;;;6157650;23;20063;-77
2022/08/28 03:26:35;;;;;;;10.32;3.25;;;22.50;71.50;;;;;;6183921;23;20020;-76
2022/08/28 03:29:00;;;;;;;6.78;2.90;;;22.50;71.50;;;;;;6157785;23;20092;-77
2022/08/28 03:31:28;;;;;;;8.52;3.15;;;22.50;71.60;;;;;;6183913;23;20080;-77
2022/08/28 03:33:54;;;;;;;6.43;2.90;;;22.50;71.40;;;;;;6157664;23;20047;-76
2022/08/28 03:36:25;;;;;;;7.32;3.00;;;22.50;71.40;;;;;;6157027;23;20005;-76
2022/08/28 03:38:52;;;;;;;7.75;3.15;;;22.40;71.30;;;;;;6184239;23;20001;-77
2022/08/28 03:41:19;;;;;;;6.10;2.70;;;22.40;71.30;;;;;;6157480;23;20001;-76
2022/08/28 03:43:45;;;;;;;8.60;3.58;;;22.40;71.40;;;;;;6157405;23;20051;-77
2022/08/28 03:46:14;;;;;;;7.57;3.00;;;22.40;71.30;;;;;;6157471;23;20008;-75
2022/08/28 03:48:40;;;;;;;7.20;3.20;;;22.40;71.20;;;;;;6157524;23;20005;-77
2022/08/28 03:51:12;;;;;;;7.18;3.00;;;22.40;71.30;;;;;;6157362;23;20005;-77
2022/08/28 03:53:38;;;;;;;6.88;2.70;;;22.40;71.20;;;;;;6183843;23;20059;-76
2022/08/28 03:56:10;;;;;;;7.68;3.22;;;22.40;71.30;;;;;;6157059;23;20005;-76
2022/08/28 03:58:36;;;;;;;7.35;3.33;;;22.40;71.20;;;;;;6182870;23;20009;-76
2022/08/28 04:01:02;;;;;;;7.80;2.72;;;22.40;71.20;;;;;;6182283;23;20036;-76
2022/08/28 04:03:28;;;;;;;7.78;2.97;;;22.40;71.40;;;;;;6157046;23;20001;-77
2022/08/28 04:05:53;;;;;;;7.22;2.70;;;22.40;71.40;;;;;;6182643;23;20012;-76
2022/08/28 04:08:19;;;;;;;7.22;2.90;;;22.40;71.40;;;;;;6156841;23;20011;-76
2022/08/28 04:10:46;;;;;;;8.25;3.17;;;22.40;71.40;;;;;;6157051;23;20012;-76
2022/08/28 04:13:13;;;;;;;8.13;3.05;;;22.40;71.20;;;;;;6156841;23;20104;-76
2022/08/28 04:15:40;;;;;;;7.13;3.10;;;22.40;71.20;;;;;;6156009;23;20001;-76
2022/08/28 04:18:06;;;;;;;7.65;3.08;;;22.40;71.20;;;;;;6156961;23;20009;-76
2022/08/28 04:20:32;;;;;;;6.63;3.20;;;22.40;71.20;;;;;;6156792;23;20001;-76
2022/08/28 04:22:57;;;;;;;8.30;2.70;;;22.30;71.20;;;;;;6157211;23;20067;-77
2022/08/28 04:25:23;;;;;;;9.00;3.13;;;22.30;71.10;;;;;;6183052;23;20439;-77
2022/08/28 04:27:50;;;;;;;7.22;3.20;;;22.30;71.10;;;;;;6182904;23;20012;-77
2022/08/28 04:30:16;;;;;;;6.50;2.88;;;22.30;71.10;;;;;;6184580;23;20013;-78
2022/08/28 04:32:41;;;;;;;7.35;2.92;;;22.30;71.10;;;;;;6158035;23;20459;-78
2022/08/28 04:35:09;;;;;;;6.65;2.75;;;22.30;71.10;;;;;;6185006;23;20024;-78
2022/08/28 04:37:35;;;;;;;6.97;2.88;;;22.30;71.10;;;;;;6183886;23;20001;-77
2022/08/28 04:40:07;;;;;;;6.57;2.80;;;22.30;71.00;;;;;;6185471;23;20012;-77
2022/08/28 04:42:32;;;;;;;7.03;2.95;;;22.30;71.00;;;;;;6184814;23;19998;-77
2022/08/28 04:44:58;;;;;;;8.93;3.13;;;22.30;71.00;;;;;;6183387;23;20016;-77
2022/08/28 04:47:27;;;;;;;7.45;2.58;;;22.30;71.00;;;;;;6157779;23;20008;-79
2022/08/28 04:49:54;;;;;;;6.35;3.00;;;22.30;71.10;;;;;;6184659;23;20028;-77
2022/08/28 04:52:20;;;;;;;6.32;2.60;;;22.30;71.20;;;;;;6180670;23;20005;-78
2022/08/28 04:54:46;;;;;;;7.43;2.90;;;22.30;71.10;;;;;;6157338;23;20013;-77
2022/08/28 04:57:11;;;;;;;7.60;2.78;;;22.30;71.10;;;;;;6157210;23;20387;-78
2022/08/28 04:59:37;;;;;;;6.95;2.65;;;22.40;71.20;;;;;;6182649;23;20004;-77
2022/08/28 05:02:04;;;;;;;5.75;2.78;;;22.30;71.00;;;;;;6157851;23;20013;-77
2022/08/28 05:04:29;;;;;;;8.40;2.90;;;22.30;71.00;;;;;;6184196;23;19997;-78
2022/08/28 05:06:55;;;;;;;7.15;2.85;;;22.30;71.00;;;;;;6158265;23;20115;-77
2022/08/28 05:09:21;;;;;;;7.13;2.60;;;22.30;71.10;;;;;;6158739;23;19997;-78
2022/08/28 05:11:48;;;;;;;6.85;2.58;;;22.30;71.10;;;;;;6157939;23;20092;-78
2022/08/28 05:14:14;;;;;;;6.63;2.50;;;22.30;70.90;;;;;;6185208;23;20445;-78
2022/08/28 05:16:43;;;;;;;8.13;2.72;;;22.30;71.00;;;;;;6158597;23;20000;-78
2022/08/28 05:19:09;;;;;;;8.13;2.85;;;22.20;71.00;;;;;;6157891;23;20021;-79
2022/08/28 05:21:36;;;;;;;6.88;2.92;;;22.20;71.00;;;;;;6184573;23;20040;-79
2022/08/28 05:24:02;;;;;;;6.13;2.70;;;22.20;70.90;;;;;;6184667;23;20028;-78
2022/08/28 05:26:27;;;;;;;5.53;2.47;;;22.20;70.90;;;;;;6184197;23;20335;-77
2022/08/28 05:28:54;;;;;;;7.00;2.70;;;22.20;70.90;;;;;;6184209;23;20001;-78
2022/08/28 05:31:21;;;;;;;6.38;2.67;;;22.20;70.90;;;;;;6159187;23;19997;-78
2022/08/28 05:33:48;;;;;;;7.93;2.88;;;22.20;70.90;;;;;;6186315;23;20009;-78
2022/08/28 05:36:15;;;;;;;7.03;2.45;;;22.20;70.90;;;;;;6157718;23;20092;-78
2022/08/28 05:38:40;;;;;;;8.52;2.47;;;22.30;71.10;;;;;;6155156;23;20002;-77
2022/08/28 05:41:07;;;;;;;7.30;2.40;;;22.30;71.20;;;;;;6180163;23;20005;-78
2022/08/28 05:43:33;;;;;;;8.13;2.85;;;22.30;71.20;;;;;;6178775;23;20005;-76
2022/08/28 05:46:01;;;;;;;7.32;2.45;;;22.30;71.00;;;;;;6152493;23;20435;-77
2022/08/28 05:48:28;;;;;;;7.95;2.58;;;22.30;70.80;;;;;;6155778;23;20005;-77
2022/08/28 05:50:54;;;;;;;7.15;2.47;;;22.30;71.10;;;;;;6181179;23;20091;-77
2022/08/28 05:53:20;;;;;;;7.10;2.60;;;22.20;70.90;;;;;;6155574;23;20084;-76
2022/08/28 05:55:45;;;;;;;7.43;2.55;;;22.20;71.00;;;;;;6181210;23;20437;-76
2022/08/28 05:58:30;;;;;;;7.13;2.45;;;22.20;71.00;;;;;;6182317;23;20001;-77
2022/08/28 06:01:02;;;;;;;7.35;2.70;;;22.20;70.90;;;;;;6182047;23;20032;-78
2022/08/28 06:03:28;;;;;;;6.30;2.67;;;22.20;70.90;;;;;;6153169;23;20013;-77
2022/08/28 06:05:54;;;;;;;6.63;2.55;;;22.20;71.00;;;;;;6156129;23;20008;-77
2022/08/28 06:08:22;;;;;;;7.85;2.65;;;22.20;70.90;;;;;;6157502;23;20374;-77
2022/08/28 06:10:49;;;;;;;6.18;2.53;;;22.20;71.00;;;;;;6157608;23;20009;-76
2022/08/28 06:13:15;;;;;;;7.90;2.90;;;22.20;70.90;;;;;;6184063;23;20005;-77
2022/08/28 06:15:41;;;;;;;6.43;2.45;;;22.20;70.90;;;;;;6183694;23;20013;-78
2022/08/28 06:18:07;;;;;;;6.25;2.75;;;22.20;70.80;;;;;;6156883;23;20001;-77
2022/08/28 06:20:37;;;;;;;9.30;2.78;;;22.20;70.70;;;;;;6156177;23;20008;-78
2022/08/28 06:23:02;;;;;;;7.78;2.88;;;22.20;70.80;;;;;;6183337;23;20001;-77
2022/08/28 06:25:28;;;;;;;6.45;2.40;;;22.20;71.00;;;;;;6158371;23;20064;-78
2022/08/28 06:27:53;;;;;;;9.88;3.10;;;22.20;70.60;;;;;;6184657;23;20005;-77
2022/08/28 06:30:19;;;;;;;8.38;3.05;;;22.20;69.90;;;;;;6158014;23;20393;-77
2022/08/28 06:32:47;;;;;;;10.40;2.55;;;22.10;69.10;;;;;;6158110;23;20035;-77
2022/08/28 06:35:12;;;;;;;9.48;2.50;;;22.10;68.80;;;;;;6184468;23;20044;-76
2022/08/28 06:37:38;;;;;;;8.95;2.60;;;22.10;69.00;;;;;;6184352;23;20386;-77
2022/08/28 06:40:04;;;;;;;7.88;2.47;;;22.00;68.90;;;;;;6157701;23;19993;-74
2022/08/28 06:42:30;;;;;;;6.93;2.50;;;22.00;68.90;;;;;;6157914;23;20005;-73
2022/08/28 06:44:56;;;;;;;6.47;2.15;;;22.00;68.90;;;;;;6184251;23;20012;-77
2022/08/28 06:47:21;;;;;;;7.93;2.50;;;22.00;69.00;;;;;;6158835;23;20009;-77
2022/08/28 06:49:47;;;;;;;7.03;2.40;;;22.00;69.00;;;;;;6157770;23;20005;-77
2022/08/28 06:52:12;;;;;;;5.88;2.28;;;22.00;69.00;;;;;;6162015;23;20072;-81
2022/08/28 06:54:38;;;;;;;6.18;2.10;;;22.00;68.90;;;;;;6163742;23;20001;-77
2022/08/28 06:57:03;;;;;;;10.88;3.00;;;22.00;68.90;;;;;;6155924;23;20008;-77
2022/08/28 06:59:29;;;;;;;6.60;2.60;;;22.00;68.40;;;;;;6156192;23;20005;-78
2022/08/28 07:01:54;;;;;;;13.43;3.00;;;21.90;67.70;;;;;;6156406;23;20023;-77
2022/08/28 07:04:20;;;;;;;42.38;7.35;;;21.90;67.90;;;;;;6184551;23;20431;-77
2022/08/28 07:06:49;;;;;;;47.17;6.20;;;21.90;67.90;;;;;;6186273;23;20453;-78
2022/08/28 07:09:15;;;;;;;25.05;4.20;;;21.80;68.10;;;;;;6163044;23;20005;-85
2022/08/28 07:11:45;;;;;;;39.10;4.85;;;21.80;67.80;;;;;;6159561;23;20009;-77
2022/08/28 07:14:11;;;;;;;27.77;4.90;;;21.80;68.10;;;;;;6184408;23;20031;-77
2022/08/28 07:16:38;;;;;;;26.77;4.45;;;22.00;68.60;;;;;;6184121;23;20009;-76
2022/08/28 07:19:05;;;;;;;25.80;4.00;;;22.10;67.90;;;;;;6157749;23;20036;-77
2022/08/28 07:21:33;;;;;;;19.63;3.63;;;22.20;67.90;;;;;;6157457;23;20011;-77
2022/08/28 07:23:59;;;;;;;20.42;4.30;;;22.20;68.00;;;;;;6155739;23;20678;-76
2022/08/28 07:26:26;;;;;;;17.88;3.70;;;22.20;67.90;;;;;;6155559;23;20032;-76
2022/08/28 07:28:53;;;;;;;17.27;3.92;;;22.30;68.20;;;;;;6155393;23;20024;-75
2022/08/28 07:31:21;;;;;;;23.20;4.13;;;22.30;68.50;;;;;;6155513;23;20413;-77
2022/08/28 07:33:48;;;;;;;20.85;4.03;;;22.30;68.40;;;;;;6182086;23;20047;-76
2022/08/28 07:36:17;;;;;;;20.02;4.10;;;22.40;68.60;;;;;;6155598;23;20001;-76
2022/08/28 07:38:43;;;;;;;19.17;3.65;;;22.50;68.70;;;;;;6156433;23;20012;-77
2022/08/28 07:41:18;;;;;;;16.38;3.90;;;22.50;68.80;;;;;;6157355;23;20005;-76
2022/08/28 07:46:29;;;;;;;19.27;3.55;;;22.50;68.80;;;;;;6183933;23;20012;-77
2022/08/28 07:48:57;;;;;;;15.18;3.58;;;22.60;68.90;;;;;;6157383;23;20028;-78
2022/08/28 07:51:23;;;;;;;18.20;3.80;;;22.60;69.00;;;;;;6184429;23;20005;-81
2022/08/28 07:53:49;;;;;;;22.33;4.40;;;22.70;69.10;;;;;;6187054;23;20009;-77
2022/08/28 07:56:15;;;;;;;19.25;4.00;;;22.70;69.00;;;;;;6157230;23;20009;-76
2022/08/28 07:58:40;;;;;;;15.32;3.85;;;22.80;68.90;;;;;;6183359;23;20554;-77
2022/08/28 08:01:06;;;;;;;16.10;4.20;;;22.90;68.90;;;;;;6156930;23;20043;-77
2022/08/28 08:03:32;;;;;;;14.13;3.83;;;23.00;69.00;;;;;;6157422;23;20016;-77
2022/08/28 08:06:01;;;;;;;11.38;3.60;;;22.90;68.90;;;;;;6183915;23;20435;-77
2022/08/28 08:08:28;;;;;;;15.45;3.70;;;23.00;68.90;;;;;;6183461;23;20091;-76
2022/08/28 08:11:04;;;;;;;15.73;4.32;;;22.90;69.00;;;;;;6183842;23;20005;-76
2022/08/28 08:13:31;;;;;;;12.55;3.63;;;22.90;69.10;;;;;;6157056;23;20088;-77
2022/08/28 08:16:11;;;;;;;12.32;3.50;;;22.90;69.30;;;;;;6156886;23;20410;-76
2022/08/28 08:18:38;;;;;;;;;;;23.00;69.50;;;;;;6183929;23;20047;-76
2022/08/28 08:21:06;;;;;;;10.70;3.28;;;22.90;69.50;;;;;;6157102;23;20383;-76
2022/08/28 08:23:37;;;;;;;10.48;3.38;;;23.00;69.70;;;;;;6157246;23;20439;-76
2022/08/28 08:26:05;;;;;;;12.88;3.58;;;23.00;69.80;;;;;;6157247;23;20074;-77
2022/08/28 08:28:33;;;;;;;14.82;3.92;;;22.90;69.90;;;;;;6183011;23;20434;-77
2022/08/28 08:31:12;;;;;;;10.82;3.45;;;22.90;70.00;;;;;;6156567;23;20328;-78
2022/08/28 08:33:41;;;;;;;11.38;3.78;;;23.00;70.20;;;;;;6183152;23;20457;-77
2022/08/28 08:36:08;;;;;;;12.93;3.90;;;23.00;70.30;;;;;;6183186;23;20429;-76
2022/08/28 08:38:35;;;;;;;12.70;3.53;;;22.90;70.30;;;;;;6156606;23;20029;-78
2022/08/28 08:41:05;;;;;;;11.05;3.40;;;22.90;70.70;;;;;;6183287;23;20387;-77
2022/08/28 08:43:50;;;;;;;12.13;3.72;;;22.80;70.70;;;;;;6156883;23;20001;-78
2022/08/28 08:46:18;;;;;;;11.38;3.60;;;22.80;71.00;;;;;;6183229;23;20005;-77
2022/08/28 08:48:45;;;;;;;12.00;3.95;;;22.80;71.10;;;;;;6183003;23;20005;-76
2022/08/28 08:51:21;;;;;;;11.63;3.22;;;22.90;71.20;;;;;;6183181;23;20033;-77
2022/08/28 08:54:06;;;;;;;10.30;3.38;;;22.90;71.10;;;;;;6156814;23;20389;-77
2022/08/28 08:56:32;;;;;;;9.98;3.55;;;23.00;71.10;;;;;;6183237;23;20500;-76
2022/08/28 08:59:00;;;;;;;10.85;3.97;;;22.90;71.00;;;;;;6182852;23;20004;-76
2022/08/28 09:01:34;;;;;;;10.52;3.40;;;23.00;71.20;;;;;;6156695;23;20009;-76
2022/08/28 09:04:03;;;;;;;10.38;3.60;;;23.00;71.30;;;;;;6183217;23;20001;-76
2022/08/28 09:06:37;;;;;;;9.95;3.50;;;23.00;71.10;;;;;;6183120;23;20108;-77
2022/08/28 09:09:11;;;;;;;8.93;3.30;;;23.10;71.20;;;;;;6182776;23;20316;-77
2022/08/28 09:11:53;;;;;;;13.35;3.33;;;23.10;71.10;;;;;;6182885;23;20004;-76
2022/08/28 09:14:32;;;;;;;9.05;3.30;;;23.10;71.10;;;;;;6156853;23;20008;-76
2022/08/28 09:16:58;;;;;;;11.80;3.53;;;23.00;71.10;;;;;;6156532;23;20483;-77
2022/08/28 09:19:24;;;;;;;13.27;3.30;;;23.00;71.40;;;;;;6181625;23;20001;-77
2022/08/28 09:21:50;;;;;;;12.02;3.45;;;22.90;71.50;;;;;;6156551;23;20005;-77
2022/08/28 09:24:31;;;;;;;7.72;3.25;;;23.00;71.70;;;;;;6156594;23;20088;-77
2022/08/28 09:27:00;;;;;;;12.18;3.75;;;23.00;71.80;;;;;;6182810;23;20001;-76
2022/08/28 09:29:33;;;;;;;8.30;3.40;;;23.10;71.70;;;;;;6181957;23;20005;-77
2022/08/28 09:32:29;;;;;;;10.63;3.20;;;23.10;71.50;;;;;;6182924;23;20028;-76
2022/08/28 09:35:28;;;;;;;8.00;3.00;;;23.10;71.60;;;;;;6156527;23;20011;-77
2022/08/28 09:37:55;;;;;;;10.27;3.75;;;23.10;71.70;;;;;;6156267;23;20089;-76
2022/08/28 09:43:25;;;;;;;8.65;3.30;;;23.10;71.80;;;;;;6156670;23;20076;-76
2022/08/28 09:43:27;;;;;;;6.85;3.05;;;23.10;71.80;;;;;;6184784;23;20009;-76
2022/08/28 09:46:01;;;;;;;10.60;2.90;;;23.10;71.90;;;;;;6158666;23;20013;-77
2022/08/28 09:48:36;;;;;;;9.35;3.50;;;23.10;72.00;;;;;;6158543;23;20434;-77
2022/08/28 09:51:08;;;;;;;8.55;3.40;;;23.10;72.10;;;;;;6158386;23;20005;-77
2022/08/28 09:53:55;;;;;;;8.27;2.92;;;23.20;72.00;;;;;;6158327;23;20008;-77
2022/08/28 09:56:28;;;;;;;7.43;2.80;;;23.20;72.00;;;;;;6158502;23;20005;-78
2022/08/28 09:58:58;;;;;;;7.90;3.00;;;23.20;72.10;;;;;;6158225;23;20001;-77
2022/08/28 10:01:42;;;;;;;10.20;3.17;;;23.20;72.10;;;;;;6158268;23;20383;-77
2022/08/28 10:04:30;;;;;;;6.90;2.72;;;23.20;72.10;;;;;;6184871;23;20049;-77
2022/08/28 10:07:05;;;;;;;7.45;3.10;;;23.30;72.20;;;;;;6158292;23;20012;-78
2022/08/28 10:09:54;;;;;;;9.23;3.20;;;23.30;72.00;;;;;;6158245;23;20350;-77
2022/08/28 10:12:51;;;;;;;6.80;2.92;;;23.30;72.20;;;;;;6184650;23;20508;-77
2022/08/28 10:15:43;;;;;;;8.55;3.25;;;23.30;72.30;;;;;;6158498;23;20058;-76
2022/08/28 10:18:23;;;;;;;9.07;3.35;;;23.20;72.20;;;;;;6158139;23;20430;-76
2022/08/28 10:21:04;;;;;;;6.07;2.65;;;23.30;72.30;;;;;;6184572;23;20000;-77
2022/08/28 10:23:53;;;;;;;7.88;3.13;;;23.30;72.30;;;;;;6158081;23;20084;-78
2022/08/28 10:26:45;;;;;;;7.05;3.00;;;23.30;72.20;;;;;;6158310;23;20005;-76
2022/08/28 10:29:32;;;;;;;7.13;2.92;;;23.30;72.40;;;;;;6184287;23;20445;-77
2022/08/28 10:32:11;;;;;;;6.20;2.63;;;23.30;72.50;;;;;;6158197;23;20005;-76
2022/08/28 10:34:50;;;;;;;6.85;2.75;;;23.30;72.50;;;;;;6158029;23;20052;-77
2022/08/28 10:37:33;;;;;;;8.50;2.83;;;23.30;72.70;;;;;;6184201;23;20450;-76
2022/08/28 10:40:07;;;;;;;6.25;2.55;;;23.20;72.80;;;;;;6157931;23;20493;-76
2022/08/28 10:42:42;;;;;;;6.15;2.47;;;23.20;72.70;;;;;;6158154;23;20040;-77
2022/08/28 10:45:13;;;;;;;7.00;2.90;;;23.20;73.00;;;;;;6158065;23;20319;-77
2022/08/28 10:47:45;;;;;;;8.82;2.97;;;23.20;73.00;;;;;;6157811;23;20016;-76
2022/08/28 10:50:25;;;;;;;7.55;2.97;;;23.20;73.10;;;;;;6184304;23;20005;-76
2022/08/28 10:53:04;;;;;;;5.72;2.72;;;23.20;73.00;;;;;;6183830;23;20009;-76
2022/08/28 10:55:42;;;;;;;6.03;2.70;;;23.20;73.10;;;;;;6184106;23;20493;-76
2022/08/28 10:58:10;;;;;;;5.90;2.75;;;23.20;73.20;;;;;;6157526;23;20088;-76
2022/08/28 11:00:38;;;;;;;7.57;3.05;;;23.20;73.30;;;;;;6157392;23;20509;-76
2022/08/28 11:03:10;;;;;;;6.75;2.75;;;23.20;73.40;;;;;;6157982;23;20092;-76
2022/08/28 11:05:41;;;;;;;6.32;2.78;;;23.20;73.40;;;;;;6183971;23;20405;-76
2022/08/28 11:08:24;;;;;;;6.95;2.90;;;23.20;73.30;;;;;;6157722;23;20005;-76
2022/08/28 11:10:55;;;;;;;6.00;2.72;;;23.30;73.30;;;;;;6183898;23;20012;-76
2022/08/28 11:13:44;;;;;;;5.53;2.30;;;23.30;73.20;;;;;;6184199;23;20009;-77
2022/08/28 11:16:27;;;;;;;6.07;2.60;;;23.30;73.20;;;;;;6184205;23;20393;-76
2022/08/28 11:19:14;;;;;;;6.55;2.80;;;23.30;73.40;;;;;;6184018;23;20005;-78
2022/08/28 11:21:46;;;;;;;5.35;2.50;;;23.30;73.50;;;;;;6157333;23;20470;-77
2022/08/28 11:24:39;;;;;;;5.07;2.33;;;23.30;73.50;;;;;;6184406;23;20446;-77
2022/08/28 11:27:15;;;;;;;5.65;2.50;;;23.20;73.40;;;;;;6143246;23;20141;-76
2022/08/28 11:30:01;;;;;;;6.25;2.50;;;23.20;73.50;;;;;;6157232;23;20001;-77
2022/08/28 11:32:33;;;;;;;5.65;2.50;;;23.20;73.60;;;;;;6157479;23;20009;-77
2022/08/28 11:35:10;;;;;;;5.45;2.53;;;23.10;73.50;;;;;;6157498;23;20005;-76
2022/08/28 11:37:39;;;;;;;8.85;3.05;;;23.20;73.70;;;;;;6156998;23;20141;-76
2022/08/28 11:40:29;;;;;;;6.25;2.50;;;23.10;73.70;;;;;;6183824;23;20028;-77
2022/08/28 11:43:13;;;;;;;;;;;23.10;74.00;;;;;;6184326;23;20028;-76
2022/08/28 11:45:41;;;;;;;4.75;2.40;;;23.20;74.10;;;;;;6157317;23;19982;-78
2022/08/28 11:48:27;;;;;;;5.22;2.20;;;23.20;74.00;;;;;;6157133;23;20095;-77
2022/08/28 11:51:06;;;;;;;6.93;2.92;;;23.20;73.80;;;;;;6156811;23;20058;-75
2022/08/28 11:53:56;;;;;;;4.78;2.30;;;23.30;73.70;;;;;;6183526;23;20005;-76
2022/08/28 11:56:41;;;;;;;6.50;2.42;;;23.30;73.60;;;;;;6157217;23;20434;-77
2022/08/28 11:59:48;;;;;;;5.85;2.78;;;23.40;73.60;;;;;;6108230;23;20001;-77
2022/08/28 12:02:42;;;;;;;4.85;2.40;;;23.30;73.70;;;;;;6086481;23;20024;-77
2022/08/28 12:05:30;;;;;;;6.35;2.60;;;23.30;73.90;;;;;;6157208;23;20015;-76
2022/08/28 12:07:57;;;;;;;5.63;2.42;;;23.30;73.90;;;;;;6156736;23;20013;-76
2022/08/28 12:10:23;;;;;;;6.18;2.50;;;23.30;74.00;;;;;;6183427;23;20009;-77
2022/08/28 12:12:56;;;;;;;5.75;2.40;;;23.30;74.10;;;;;;6183517;23;20028;-76
2022/08/28 12:15:28;;;;;;;4.82;2.05;;;23.30;74.20;;;;;;6156972;23;20032;-77
2022/08/28 12:17:59;;;;;;;5.45;2.40;;;23.30;74.00;;;;;;6156853;23;20481;-77
2022/08/28 12:20:31;;;;;;;;;;;23.20;74.30;;;;;;6183930;23;19993;-76
2022/08/28 12:23:03;;;;;;;5.18;2.17;;;23.20;74.30;;;;;;6183889;23;19979;-77
2022/08/28 12:25:39;;;;;;;4.80;2.25;;;23.20;74.50;;;;;;6183862;23;20005;-78
2022/08/28 12:28:23;;;;;;;6.10;2.50;;;23.20;74.60;;;;;;6183286;23;20072;-77
2022/08/28 12:31:00;;;;;;;5.20;2.40;;;23.20;74.60;;;;;;6156925;23;20009;-77
2022/08/28 12:33:35;;;;;;;5.45;2.38;;;23.20;74.60;;;;;;6183571;23;20033;-77
2022/08/28 12:36:06;;;;;;;5.60;2.30;;;23.20;74.50;;;;;;6156833;23;20001;-77
2022/08/28 12:38:32;;;;;;;;;;;23.30;74.50;;;;;;6183587;23;20001;-78
2022/08/28 12:40:58;;;;;;;5.25;2.20;;;23.30;74.40;;;;;;6181615;23;19932;-77
2022/08/28 12:43:30;;;;;;;4.78;2.05;;;23.30;74.40;;;;;;6183393;23;20028;-77
2022/08/28 12:46:03;;;;;;;6.22;2.42;;;23.30;74.40;;;;;;6183102;23;20040;-76
2022/08/28 12:48:33;;;;;;;5.00;2.10;;;23.20;74.40;;;;;;6156732;23;20008;-76
2022/08/28 12:51:10;;;;;;;4.80;2.20;;;23.20;74.40;;;;;;6183020;23;20009;-78
2022/08/28 12:53:42;;;;;;;4.25;2.10;;;23.20;74.60;;;;;;6156809;23;20009;-76
2022/08/28 12:56:10;;;;;;;4.60;2.55;;;23.20;74.70;;;;;;6183132;23;20327;-76
2022/08/28 12:58:38;;;;;;;5.40;2.20;;;23.10;74.80;;;;;;6183327;23;20001;-77
2022/08/28 13:01:11;;;;;;;5.47;2.13;;;23.10;74.80;;;;;;6183232;23;20027;-77
2022/08/28 13:03:46;;;;;;;4.13;2.30;;;23.10;74.90;;;;;;6156814;23;20059;-76
2022/08/28 13:06:12;;;;;;;5.32;2.35;;;23.10;75.00;;;;;;6182781;23;20009;-77